Time;durP1;ratioP1;P1;durP2;ratioP2;P2;SDS_P1;SDS_P2;PMS_P1;PMS_P2;Temp;Humidity;BMP_temperature;BMP_pressure;BME280_temperature;BME280_humidity;BME280_pressure;Samples;Min_cycle;Max_cycle;Signal;HPM_P1;HPM_P2
2021/10/01 00:01:06;;;;;;;10.75;6.60;;;;;;;16.89;51.92;100556.44;5072862;28;20077;-79
2021/10/01 00:03:32;;;;;;;9.93;7.43;;;;;;;17.00;52.04;100571.06;5071410;28;20405;-79
2021/10/01 00:05:57;;;;;;;7.57;6.80;;;;;;;16.66;51.99;100522.00;5072942;28;20024;-79
2021/10/01 00:08:23;;;;;;;8.52;6.40;;;;;;;16.83;52.38;100552.69;5072935;28;20500;-80
2021/10/01 00:10:48;;;;;;;7.05;5.93;;;;;;;16.92;51.94;100557.88;5072707;28;20031;-79
2021/10/01 00:13:14;;;;;;;7.80;6.32;;;;;;;16.92;51.96;100560.56;5072745;28;20121;-79
2021/10/01 00:15:39;;;;;;;8.80;6.22;;;;;;;16.86;52.04;100562.16;5072923;28;20036;-79
2021/10/01 00:18:05;;;;;;;8.30;6.93;;;;;;;16.82;52.27;100550.22;5072112;28;20035;-79
2021/10/01 00:20:31;;;;;;;7.63;6.70;;;;;;;16.35;52.08;100468.19;5072482;28;20028;-79
2021/10/01 00:22:57;;;;;;;8.20;6.15;;;;;;;16.87;51.90;100555.81;5072568;28;20046;-79
2021/10/01 00:25:22;;;;;;;8.52;7.13;;;;;;;16.84;51.93;100556.19;5072448;28;20032;-76
2021/10/01 00:27:48;;;;;;;22.88;16.42;;;;;;;16.48;52.20;100498.47;5072533;28;20480;-76
2021/10/01 00:30:13;;;;;;;10.90;7.65;;;;;;;16.90;52.12;100552.75;5072449;28;20559;-75
2021/10/01 00:32:39;;;;;;;11.80;7.60;;;;;;;16.78;51.84;100540.97;5072175;28;20021;-76
2021/10/01 00:35:05;;;;;;;11.13;7.15;;;;;;;16.83;52.46;100554.53;5072248;28;20043;-75
2021/10/01 00:37:30;;;;;;;9.88;6.35;;;;;;;16.88;52.35;100556.63;5072424;28;20560;-76
2021/10/01 00:39:56;;;;;;;10.10;7.30;;;;;;;16.88;52.06;100548.63;5072245;28;20024;-76
2021/10/01 00:42:21;;;;;;;9.13;6.93;;;;;;;16.76;52.17;100530.47;5072091;28;20032;-74
2021/10/01 00:44:48;;;;;;;9.27;6.65;;;;;;;16.74;52.32;100532.53;5071796;28;20081;-75
2021/10/01 00:47:13;;;;;;;12.73;7.05;;;;;;;16.17;52.16;100434.00;5072003;28;20035;-75
2021/10/01 00:49:39;;;;;;;9.63;6.97;;;;;;;16.53;52.17;100497.88;5071924;28;20111;-76
2021/10/01 00:52:06;;;;;;;8.10;6.78;;;;;;;16.84;52.39;100556.19;5071977;28;20024;-76
2021/10/01 00:54:31;;;;;;;10.38;7.60;;;;;;;16.82;51.90;100544.88;5070572;28;20458;-76
2021/10/01 00:56:59;;;;;;;13.00;7.63;;;;;;;16.51;52.05;100497.25;5071907;28;20067;-76
2021/10/01 00:59:24;;;;;;;9.52;7.15;;;;;;;16.72;52.08;100537.22;5071751;28;20029;-76
2021/10/01 01:01:50;;;;;;;12.57;7.25;;;;;;;16.18;52.13;100473.78;5071842;28;20098;-74
2021/10/01 01:04:17;;;;;;;8.52;6.78;;;;;;;16.70;52.40;100543.78;5071599;28;20029;-76
2021/10/01 01:06:51;;;;;;;9.25;7.10;;;;;;;16.66;52.22;100542.50;5071553;28;20485;-75
2021/10/01 01:09:38;;;;;;;10.93;7.50;;;;;;;16.63;52.29;100540.19;5071484;28;20052;-75
2021/10/01 01:12:08;;;;;;;12.77;7.85;;;;;;;16.63;52.44;100534.88;5071452;28;20059;-75
2021/10/01 01:14:39;;;;;;;12.30;7.80;;;;;;;16.60;52.54;100551.25;5071346;28;20024;-74
2021/10/01 01:17:07;;;;;;;10.10;8.00;;;;;;;16.57;52.07;100538.31;5071328;28;20039;-76
2021/10/01 01:20:03;;;;;;;10.00;7.97;;;;;;;16.58;52.06;100546.09;5071330;28;20082;-75
2021/10/01 01:22:38;;;;;;;11.32;8.57;;;;;;;16.58;52.06;100540.78;5071444;28;20020;-76
2021/10/01 01:25:03;;;;;;;10.52;8.43;;;;;;;16.55;51.63;100546.50;5071448;28;20031;-79
2021/10/01 01:27:43;;;;;;;13.75;8.43;;;;;;;16.51;51.62;100539.91;5071590;28;20024;-79
2021/10/01 01:30:45;;;;;;;11.27;9.13;;;;;;;16.58;51.11;100551.44;5070872;28;20048;-79
2021/10/01 01:33:16;;;;;;;11.05;8.52;;;;;;;16.50;50.95;100538.25;5070558;28;20067;-79
2021/10/01 01:35:44;;;;;;;12.43;9.35;;;;;;;16.55;50.70;100551.00;5071085;28;20029;-79
2021/10/01 01:38:17;;;;;;;13.77;9.10;;;;;;;16.21;50.88;100493.88;5071095;28;20059;-79
2021/10/01 01:40:50;;;;;;;14.18;9.30;;;;;;;16.19;50.09;100495.91;5071168;28;20116;-79
2021/10/01 01:43:15;;;;;;;11.65;9.38;;;;;;;16.51;50.30;100538.06;5069726;28;20409;-79
2021/10/01 01:45:43;;;;;;;19.98;9.48;;;;;;;16.13;49.99;100475.38;5071048;28;20028;-79
2021/10/01 01:48:09;;;;;;;11.40;8.88;;;;;;;16.61;49.88;100555.56;5071086;28;20032;-79
2021/10/01 01:50:36;;;;;;;12.45;8.50;;;;;;;16.59;49.81;100550.44;5071373;28;20512;-79
2021/10/01 01:53:04;;;;;;;11.13;8.20;;;;;;;16.21;49.96;100496.56;5071146;28;20458;-79
2021/10/01 01:55:30;;;;;;;16.33;9.70;;;;;;;16.46;49.78;100536.97;5071330;28;20501;-79
2021/10/01 01:57:58;;;;;;;13.95;9.93;;;;;;;16.14;50.26;100496.50;5071077;28;20029;-79
2021/10/01 02:00:24;;;;;;;14.32;9.35;;;;;;;16.44;50.12;100550.50;5071126;28;20021;-79
2021/10/01 02:02:51;;;;;;;14.88;9.10;;;;;;;16.40;50.50;100557.22;5071353;28;20481;-79
2021/10/01 02:05:18;;;;;;;12.18;9.45;;;;;;;16.24;50.20;100525.47;5071217;28;20020;-80
2021/10/01 02:07:45;;;;;;;13.38;9.25;;;;;;;15.72;50.40;100457.34;5070929;28;20024;-80
2021/10/01 02:10:12;;;;;;;13.43;9.43;;;;;;;15.78;50.10;100480.56;5070905;28;20081;-79
2021/10/01 02:12:39;;;;;;;12.65;8.63;;;;;;;16.19;50.14;100551.88;5070889;28;20022;-79
2021/10/01 02:15:05;;;;;;;12.55;9.05;;;;;;;14.96;50.56;100356.78;5070984;28;20028;-80
2021/10/01 02:17:35;;;;;;;15.23;9.60;;;;;;;15.49;50.59;100446.00;5070999;28;20477;-79
2021/10/01 02:20:03;;;;;;;12.65;8.85;;;;;;;16.16;50.40;100558.41;5070918;28;20089;-79
2021/10/01 02:22:30;;;;;;;12.43;9.52;;;;;;;16.06;50.55;100552.56;5071180;28;20025;-79
2021/10/01 02:24:55;;;;;;;13.13;9.75;;;;;;;16.14;50.42;100554.28;5071070;28;20059;-76
2021/10/01 02:27:30;;;;;;;14.73;9.68;;;;;;;16.02;50.79;100553.13;5069517;28;20090;-76
2021/10/01 02:30:00;;;;;;;12.13;9.32;;;;;;;15.43;50.53;100468.03;5070778;28;20048;-74
2021/10/01 02:32:37;;;;;;;10.70;8.35;;;;;;;15.96;50.63;100551.22;5070785;28;20028;-76
2021/10/01 02:35:05;;;;;;;16.48;8.52;;;;;;;15.94;50.82;100555.91;5070745;28;20039;-75
2021/10/01 02:37:31;;;;;;;11.30;8.40;;;;;;;15.95;50.70;100552.25;5070593;28;20024;-76
2021/10/01 02:39:57;;;;;;;9.95;8.60;;;;;;;15.88;50.70;100541.50;5069116;28;20020;-76
2021/10/01 02:42:25;;;;;;;10.00;8.45;;;;;;;15.96;50.67;100556.56;5074035;28;20020;-76
2021/10/01 02:44:51;;;;;;;11.82;8.02;;;;;;;15.96;50.46;100562.69;5074493;28;20154;-76
2021/10/01 02:47:18;;;;;;;12.98;7.95;;;;;;;15.98;50.73;100559.84;5074553;28;20025;-76
2021/10/01 02:49:45;;;;;;;9.48;8.07;;;;;;;15.72;50.76;100517.78;5074452;28;20401;-76
2021/10/01 02:52:26;;;;;;;12.20;8.82;;;;;;;15.95;50.66;100557.56;5074145;28;20029;-76
2021/10/01 02:54:54;;;;;;;13.18;7.85;;;;;;;15.92;50.62;100565.94;5074247;28;20024;-76
2021/10/01 02:57:27;;;;;;;10.70;8.13;;;;;;;15.95;50.31;100568.22;5074358;28;20508;-76
2021/10/01 02:59:56;;;;;;;10.57;7.93;;;;;;;15.69;50.29;100529.63;5073994;28;20476;-76
2021/10/01 03:02:22;;;;;;;11.63;8.90;;;;;;;15.90;50.72;100563.44;5074003;28;20024;-75
2021/10/01 03:04:54;;;;;;;12.23;8.82;;;;;;;15.91;50.45;100566.94;5074002;28;20028;-76
2021/10/01 03:07:21;;;;;;;10.32;9.15;;;;;;;15.86;50.62;100559.50;5074097;28;20028;-75
2021/10/01 03:09:48;;;;;;;15.20;9.18;;;;;;;15.87;50.42;100564.66;5074078;28;20027;-75
2021/10/01 03:12:17;;;;;;;13.15;9.13;;;;;;;15.75;50.74;100558.16;5073900;28;20017;-75
2021/10/01 03:14:43;;;;;;;10.52;8.23;;;;;;;15.65;50.85;100548.81;5073715;28;20020;-75
2021/10/01 03:17:08;;;;;;;13.32;9.43;;;;;;;15.73;51.02;100551.38;5073960;28;20382;-76
2021/10/01 03:19:35;;;;;;;14.88;9.48;;;;;;;15.76;50.83;100559.81;5072463;28;20102;-75
2021/10/01 03:22:02;;;;;;;13.07;8.65;;;;;;;15.73;51.06;100562.84;5073810;28;20035;-76
2021/10/01 03:24:28;;;;;;;15.48;9.05;;;;;;;15.71;51.06;100558.72;5073803;28;20028;-76
2021/10/01 03:26:54;;;;;;;12.77;9.07;;;;;;;15.31;50.88;100506.78;5073699;28;20096;-76
2021/10/01 03:29:20;;;;;;;13.10;8.80;;;;;;;15.25;51.20;100492.38;5073612;28;20021;-75
2021/10/01 03:31:48;;;;;;;12.80;9.15;;;;;;;15.52;51.29;100539.59;5073381;28;20142;-75
2021/10/01 03:34:14;;;;;;;17.20;9.73;;;;;;;15.61;51.26;100547.53;5073078;28;20103;-76
2021/10/01 03:36:42;;;;;;;14.98;8.68;;;;;;;15.47;51.05;100563.28;5073444;28;20489;-75
2021/10/01 03:39:07;;;;;;;13.70;8.52;;;;;;;15.58;51.14;100548.72;5073459;28;20044;-76
2021/10/01 03:41:34;;;;;;;15.20;9.02;;;;;;;15.52;51.02;100539.59;5073438;28;20048;-76
2021/10/01 03:44:00;;;;;;;14.43;9.35;;;;;;;15.57;51.12;100552.34;5073277;28;20081;-76
2021/10/01 03:46:26;;;;;;;11.70;8.75;;;;;;;15.46;50.98;100550.97;5073159;28;20020;-75
2021/10/01 03:48:52;;;;;;;12.30;9.18;;;;;;;15.46;51.00;100550.97;5073331;28;20021;-76
2021/10/01 03:51:17;;;;;;;13.23;9.23;;;;;;;15.45;51.01;100554.66;5073344;28;20031;-76
2021/10/01 03:53:42;;;;;;;10.30;8.55;;;;;;;15.46;50.93;100556.31;5072305;28;20017;-75
2021/10/01 03:56:17;;;;;;;13.95;8.60;;;;;;;14.28;50.91;100366.66;5071941;28;20028;-76
2021/10/01 03:58:47;;;;;;;12.50;8.15;;;;;;;15.50;50.65;100560.25;5073064;28;20025;-76
2021/10/01 04:01:13;;;;;;;18.52;9.80;;;;;;;15.49;50.70;100585.22;5072804;28;20016;-75
2021/10/01 04:03:39;;;;;;;14.15;8.90;;;;;;;15.52;50.45;100576.84;5072879;28;20017;-74
2021/10/01 04:06:04;;;;;;;11.75;7.85;;;;;;;15.51;50.34;100564.56;5072951;28;20028;-76
2021/10/01 04:08:30;;;;;;;11.13;7.85;;;;;;;15.36;50.13;100529.16;5073061;28;20392;-76
2021/10/01 04:10:56;;;;;;;12.30;7.60;;;;;;;15.52;49.74;100557.41;5071534;28;20021;-76
2021/10/01 04:13:21;;;;;;;12.02;7.72;;;;;;;15.54;49.63;100564.19;5071074;28;20025;-75
2021/10/01 04:15:47;;;;;;;12.57;8.77;;;;;;;15.60;49.02;100556.50;5072569;28;20028;-76
2021/10/01 04:18:13;;;;;;;11.27;7.30;;;;;;;15.52;48.94;100558.22;5072480;28;20101;-76
2021/10/01 04:20:41;;;;;;;10.57;7.97;;;;;;;15.61;48.78;100574.16;5072517;28;20016;-76
2021/10/01 04:23:07;;;;;;;13.02;7.82;;;;;;;15.63;48.70;100574.81;5072527;28;20024;-74
2021/10/01 04:25:32;;;;;;;10.57;7.32;;;;;;;15.52;49.07;100570.72;5072603;28;20021;-75
2021/10/01 04:27:58;;;;;;;16.42;7.50;;;;;;;14.58;48.57;100402.06;5072543;28;20481;-76
2021/10/01 04:30:24;;;;;;;15.45;8.75;;;;;;;15.04;48.65;100469.19;5072475;28;20416;-75
2021/10/01 04:33:12;;;;;;;16.73;8.35;;;;;;;15.64;48.61;100565.81;5072364;28;20091;-75
2021/10/01 04:35:37;;;;;;;12.82;8.25;;;;;;;15.22;48.66;100498.06;5072241;28;20536;-76
2021/10/01 04:38:03;;;;;;;20.58;10.85;;;;;;;15.56;48.98;100561.34;5071950;28;20024;-76
2021/10/01 04:40:28;;;;;;;21.52;9.95;;;;;;;15.56;48.89;100553.34;5071994;28;20103;-76
2021/10/01 04:42:53;;;;;;;21.13;10.30;;;;;;;15.62;48.92;100568.66;5071982;28;20020;-76
2021/10/01 04:45:19;;;;;;;17.58;9.70;;;;;;;15.54;49.34;100574.00;5071934;28;20412;-75
2021/10/01 04:47:44;;;;;;;17.23;10.02;;;;;;;15.50;49.11;100562.91;5072092;28;20017;-75
2021/10/01 04:50:10;;;;;;;16.38;9.38;;;;;;;15.25;49.47;100535.78;5071796;28;20513;-75
2021/10/01 04:52:35;;;;;;;19.88;10.15;;;;;;;15.35;49.60;100571.91;5071938;28;20029;-75
2021/10/01 04:55:00;;;;;;;14.45;8.60;;;;;;;15.47;49.84;100589.06;5072150;28;20024;-76
2021/10/01 04:57:26;;;;;;;15.50;9.90;;;;;;;15.11;50.13;100541.91;5071770;28;20017;-75
2021/10/01 04:59:51;;;;;;;15.88;9.57;;;;;;;15.39;50.01;100587.34;5071673;28;20085;-76
2021/10/01 05:02:17;;;;;;;24.33;11.68;;;;;;;15.40;50.37;100588.97;5071629;28;20107;-76
2021/10/01 05:04:42;;;;;;;21.42;11.27;;;;;;;15.37;49.94;100594.66;5071707;28;20117;-75
2021/10/01 05:07:08;;;;;;;18.23;11.13;;;;;;;15.21;50.14;100597.50;5071578;28;20491;-75
2021/10/01 05:09:33;;;;;;;23.65;10.93;;;;;;;15.14;50.40;100592.09;5071516;28;20029;-75
2021/10/01 05:11:58;;;;;;;19.58;12.07;;;;;;;15.16;50.42;100608.69;5070458;28;20607;-75
2021/10/01 05:14:24;;;;;;;23.95;13.27;;;;;;;15.07;50.72;100582.34;5071366;28;20032;-76
2021/10/01 05:16:49;;;;;;;24.92;12.55;;;;;;;15.07;50.60;100572.53;5071570;28;20413;-76
2021/10/01 05:19:15;;;;;;;24.63;13.57;;;;;;;15.33;50.55;100600.53;5071191;28;20099;-75
2021/10/01 05:21:40;;;;;;;26.23;13.30;;;;;;;14.15;50.40;100422.22;5071251;28;20097;-75
2021/10/01 05:24:05;;;;;;;21.80;12.45;;;;;;;15.12;50.29;100569.34;5071236;28;20012;-75
2021/10/01 05:26:31;;;;;;;23.00;12.57;;;;;;;15.33;50.57;100609.34;5071198;28;20021;-76
2021/10/01 05:28:57;;;;;;;18.02;12.48;;;;;;;15.43;50.71;100617.88;5071369;28;20012;-75
2021/10/01 05:31:23;;;;;;;20.60;10.35;;;;;;;14.96;50.96;100537.59;5071235;28;20446;-76
2021/10/01 05:33:49;;;;;;;17.23;11.15;;;;;;;15.24;50.65;100578.53;5071354;28;20209;-75
2021/10/01 05:36:16;;;;;;;19.58;10.57;;;;;;;14.67;51.13;100479.88;5071281;28;20021;-75
2021/10/01 05:38:42;;;;;;;14.75;9.13;;;;;;;15.53;51.24;100618.44;5080744;28;20031;-75
2021/10/01 05:41:07;;;;;;;15.13;8.80;;;;;;;15.43;51.66;100617.88;5091267;28;20027;-75
2021/10/01 05:43:32;;;;;;;19.95;10.00;;;;;;;15.33;51.47;100601.38;5089080;28;20539;-75
2021/10/01 05:45:59;;;;;;;14.88;10.13;;;;;;;15.10;51.69;100556.22;5078056;28;20027;-75
2021/10/01 05:48:27;;;;;;;11.55;7.78;;;;;;;15.39;51.58;100618.44;5091178;28;20016;-75
2021/10/01 05:50:54;;;;;;;13.07;8.52;;;;;;;15.34;51.44;100588.88;5077956;28;20023;-76
2021/10/01 05:53:46;;;;;;;11.50;7.72;;;;;;;15.58;51.45;100621.41;5089547;28;20136;-76
2021/10/01 05:56:12;;;;;;;9.02;6.70;;;;;;;15.68;50.79;100625.66;5091053;28;20035;-75
2021/10/01 05:58:40;;;;;;;12.93;7.43;;;;;;;15.45;50.89;100578.59;5091042;28;20028;-76
2021/10/01 06:01:06;;;;;;;12.00;7.70;;;;;;;15.76;50.84;100629.03;5089905;28;20169;-75
2021/10/01 06:03:31;;;;;;;15.35;7.65;;;;;;;15.82;50.25;100617.66;5089672;28;20024;-75
2021/10/01 06:05:57;;;;;;;23.17;8.93;;;;;;;15.85;49.61;100621.78;5090870;28;20424;-76
2021/10/01 06:08:22;;;;;;;16.48;8.07;;;;;;;15.84;49.30;100609.47;5091032;28;20617;-76
2021/10/01 06:10:48;;;;;;;21.70;8.80;;;;;;;15.87;49.10;100606.44;5091059;28;20507;-77
2021/10/01 06:13:14;;;;;;;14.52;7.82;;;;;;;15.93;48.85;100616.34;5091059;28;20020;-77
2021/10/01 06:15:39;;;;;;;17.48;8.32;;;;;;;15.97;48.74;100614.97;5091909;28;20085;-77
2021/10/01 06:18:04;;;;;;;21.67;6.68;;;;;;;15.41;47.88;100528.59;5095067;28;20487;-76
2021/10/01 06:20:30;;;;;;;17.13;7.00;;;;;;;16.03;47.76;100622.19;5094792;28;20034;-76
2021/10/01 06:22:55;;;;;;;25.92;7.68;;;;;;;16.12;47.48;100621.06;5094940;28;20095;-75
2021/10/01 06:25:22;;;;;;;25.70;8.25;;;;;;;15.97;47.18;100588.31;5094549;28;20492;-80
2021/10/01 06:27:48;;;;;;;13.80;6.95;;;;;;;15.98;47.05;100602.47;5094998;28;20028;-80
2021/10/01 06:30:13;;;;;;;17.85;6.40;;;;;;;16.14;46.46;100640.38;5088734;28;20020;-80
2021/10/01 06:32:39;;;;;;;18.77;6.47;;;;;;;15.55;46.49;100546.38;5074534;28;20382;-80
2021/10/01 06:35:06;;;;;;;12.82;6.80;;;;;;;16.19;46.20;100623.81;5074291;28;20437;-81
2021/10/01 06:37:32;;;;;;;17.80;7.30;;;;;;;16.27;46.01;100620.22;5074227;28;20455;-81
2021/10/01 06:39:57;;;;;;;11.10;6.60;;;;;;;15.94;46.13;100580.72;5087185;28;20047;-80
2021/10/01 06:42:23;;;;;;;15.98;6.82;;;;;;;15.81;46.08;100577.91;5094783;28;20484;-81
2021/10/01 06:44:52;;;;;;;12.30;6.93;;;;;;;16.35;45.94;100641.41;5093544;28;20035;-80
2021/10/01 08:19:52;;;;;;;7.28;3.08;;;;;;;18.47;39.47;100609.78;5080411;28;20067;-76
2021/10/01 08:22:18;;;;;;;6.55;3.15;;;;;;;18.56;39.14;100621.94;5077899;28;20040;-77
2021/10/01 08:24:43;;;;;;;8.48;3.42;;;;;;;18.02;38.99;100507.13;5087434;28;20034;-76
2021/10/01 08:27:09;;;;;;;8.68;4.18;;;;;;;18.80;38.30;100599.19;5090632;28;20027;-77
2021/10/01 08:29:35;;;;;;;7.93;4.38;;;;;;;18.39;37.89;100527.09;5083079;28;20038;-77
2021/10/01 08:32:02;;;;;;;7.07;3.50;;;;;;;18.85;37.51;100586.00;5087399;28;20032;-76
2021/10/01 08:34:38;;;;;;;8.32;3.85;;;;;;;18.93;37.83;100601.03;5080615;28;20123;-75
2021/10/01 08:37:04;;;;;;;11.55;4.07;;;;;;;18.95;37.88;100601.66;5088993;28;20559;-77
2021/10/01 08:39:30;;;;;;;5.88;4.63;;;;;;;18.97;37.89;100596.91;5091960;28;20020;-76
2021/10/01 08:41:57;;;;;;;8.10;3.47;;;;;;;18.94;37.75;100592.78;5091865;28;20401;-77
2021/10/01 08:44:27;;;;;;;7.53;4.10;;;;;;;19.06;37.65;100601.03;5091602;28;20101;-75
2021/10/01 08:46:53;;;;;;;12.40;5.35;;;;;;;19.15;36.97;100606.97;5077746;28;20030;-76
2021/10/01 08:49:20;;;;;;;7.60;3.40;;;;;;;19.01;37.35;100598.16;5071132;28;20050;-76
2021/10/01 08:51:45;;;;;;;11.15;4.68;;;;;;;18.94;37.20;100594.66;5090910;28;20484;-75
2021/10/01 08:54:11;;;;;;;8.15;3.25;;;;;;;18.38;37.23;100525.44;5091616;28;20028;-76
2021/10/01 08:56:37;;;;;;;9.35;3.90;;;;;;;18.66;37.41;100594.84;5091476;28;20020;-75
2021/10/01 08:59:03;;;;;;;9.10;3.85;;;;;;;17.55;37.55;100430.50;5091573;28;20099;-76
2021/10/01 09:01:29;;;;;;;9.02;3.65;;;;;;;18.63;37.88;100597.94;5091515;28;20085;-77
2021/10/01 09:03:55;;;;;;;15.48;3.78;;;;;;;18.65;37.85;100601.25;5091276;28;20019;-76
2021/10/01 09:06:20;;;;;;;8.88;3.55;;;;;;;18.82;37.28;100602.47;5091488;28;20031;-76
2021/10/01 09:08:57;;;;;;;7.00;3.17;;;;;;;19.03;36.92;100580.84;5091246;28;20434;-75
2021/10/01 09:11:46;;;;;;;10.18;6.05;;;;;;;19.11;37.00;100581.66;5091554;28;20518;-76
2021/10/01 09:14:18;;;;;;;12.82;4.32;;;;;;;18.61;36.95;100506.34;5091213;28;20024;-76
2021/10/01 09:16:43;;;;;;;9.70;5.60;;;;;;;19.07;37.06;100599.16;5075458;28;20060;-75
2021/10/01 09:19:10;;;;;;;8.18;4.43;;;;;;;18.86;37.13;100574.28;5070722;28;20580;-77
2021/10/01 09:21:51;;;;;;;12.05;5.63;;;;;;;18.91;37.21;100595.06;5070779;28;20391;-76
2021/10/01 09:24:23;;;;;;;9.25;4.20;;;;;;;18.89;37.44;100589.09;5070832;28;20035;-76
2021/10/01 09:26:51;;;;;;;13.00;3.65;;;;;;;18.63;37.06;100563.16;5085937;28;20028;-76
2021/10/01 09:29:28;;;;;;;8.38;3.50;;;;;;;18.87;37.03;100602.69;5070211;28;20020;-77
2021/10/01 09:31:55;;;;;;;12.10;6.05;;;;;;;17.94;37.34;100456.53;5070682;28;20078;-76
2021/10/01 09:34:23;;;;;;;10.88;4.30;;;;;;;18.89;37.24;100591.78;5076794;28;20420;-75
2021/10/01 09:37:04;;;;;;;6.95;3.42;;;;;;;19.03;36.76;100578.16;5090921;28;20097;-76
2021/10/01 09:39:50;;;;;;;8.13;3.30;;;;;;;19.28;36.83;100588.22;5080744;28;20024;-75
2021/10/01 09:42:30;;;;;;;10.25;4.13;;;;;;;19.30;36.43;100583.47;5070052;28;20489;-75
2021/10/01 09:44:57;;;;;;;7.40;3.53;;;;;;;19.62;35.95;100553.16;5076409;28;20016;-75
2021/10/01 09:47:49;;;;;;;8.30;4.20;;;;;;;20.17;34.44;100579.50;5077795;28;20484;-76
2021/10/01 09:50:30;;;;;;;9.88;4.63;;;;;;;20.47;34.71;100572.50;5076014;28;20043;-76
2021/10/01 09:53:03;;;;;;;7.95;5.07;;;;;;;20.92;34.27;100567.00;5086678;28;20032;-73
2021/10/01 09:55:34;;;;;;;8.80;4.72;;;;;;;21.37;33.78;100559.53;5087610;28;20044;-73
2021/10/01 09:58:14;;;;;;;6.55;3.83;;;;;;;21.85;31.35;100561.47;5074762;28;20024;-76
2021/10/01 10:00:52;;;;;;;12.35;4.40;;;;;;;21.71;32.83;100568.06;5090851;28;20070;-75
2021/10/01 10:03:24;;;;;;;8.50;3.28;;;;;;;21.49;32.72;100571.19;5076613;28;20493;-76
2021/10/01 10:06:10;;;;;;;;;;;;;;;21.54;32.17;100571.34;5073822;28;20027;-76
2021/10/01 10:08:42;;;;;;;12.25;8.73;;;;;;;21.73;32.80;100557.91;5090430;28;19914;-76
2021/10/01 10:11:12;;;;;;;7.32;4.65;;;;;;;21.75;32.33;100571.94;5090811;28;20121;-75
2021/10/01 10:13:45;;;;;;;9.57;4.88;;;;;;;21.88;32.27;100577.97;5068843;28;20016;-74
2021/10/01 10:16:14;;;;;;;7.70;4.47;;;;;;;21.73;32.47;100572.16;5087389;28;20032;-73
2021/10/01 10:18:40;;;;;;;10.50;4.82;;;;;;;21.45;32.50;100575.38;5090799;28;20116;-76
2021/10/01 10:21:07;;;;;;;38.50;8.20;;;;;;;21.24;32.85;100541.72;5079342;28;20028;-76
2021/10/01 10:23:32;;;;;;;8.68;3.72;;;;;;;21.63;32.14;100563.81;5072090;28;20023;-76
2021/10/01 10:25:58;;;;;;;14.75;3.53;;;;;;;21.35;32.02;100547.38;5070077;28;20020;-76
2021/10/01 10:28:24;;;;;;;6.00;3.45;;;;;;;21.29;32.00;100551.78;5072093;28;20050;-75
2021/10/01 10:30:51;;;;;;;5.55;3.40;;;;;;;20.92;32.16;100516.00;5083984;28;20047;-76
2021/10/01 10:33:45;;;;;;;7.05;4.88;;;;;;;21.15;32.19;100547.56;5073521;28;20024;-76
2021/10/01 10:36:26;;;;;;;5.47;3.53;;;;;;;21.66;31.69;100549.09;5090002;28;20044;-77
2021/10/01 10:38:52;;;;;;;7.75;4.20;;;;;;;21.54;31.81;100547.16;5089845;28;20111;-76
2021/10/01 10:41:26;;;;;;;7.88;4.28;;;;;;;21.31;31.77;100544.31;5089063;28;20473;-76
2021/10/01 10:43:52;;;;;;;12.88;3.80;;;;;;;21.06;32.31;100530.94;5077635;28;20029;-76
2021/10/01 10:46:35;;;;;;;5.70;3.33;;;;;;;20.83;31.74;100542.31;5070177;28;20408;-76
2021/10/01 10:49:22;;;;;;;5.72;3.00;;;;;;;20.61;32.00;100578.59;5087604;28;20032;-76
2021/10/01 10:52:09;;;;;;;14.05;9.30;;;;;;;20.53;32.93;100538.63;5090607;28;20038;-75
2021/10/01 10:54:41;;;;;;;6.45;4.43;;;;;;;20.78;32.18;100519.81;5081094;28;20480;-76
2021/10/01 10:57:15;;;;;;;;;;;;;;;20.83;32.53;100544.16;5070750;28;20481;-76
2021/10/01 10:59:41;;;;;;;9.65;4.65;;;;;;;20.66;32.58;100524.28;5070092;28;19908;-76
2021/10/01 11:02:25;;;;;;;12.75;7.38;;;;;;;20.56;32.27;100530.13;5070990;28;20504;-76
2021/10/01 11:05:11;;;;;;;5.45;3.63;;;;;;;20.52;32.79;100548.53;5072676;28;20028;-76
2021/10/01 11:08:03;;;;;;;9.60;3.50;;;;;;;20.84;32.20;100533.22;5077813;28;20035;-77
2021/10/01 11:10:49;;;;;;;4.97;2.67;;;;;;;21.00;31.97;100529.13;5089397;28;20039;-72
2021/10/01 11:13:23;;;;;;;4.43;2.78;;;;;;;21.32;31.42;100524.47;5077889;28;20032;-76
2021/10/01 11:16:15;;;;;;;13.15;3.88;;;;;;;21.84;30.96;100508.75;5092204;28;20472;-74
2021/10/01 11:18:44;;;;;;;8.85;4.15;;;;;;;21.80;31.04;100513.75;5080966;28;20028;-75
2021/10/01 11:21:29;;;;;;;7.05;3.45;;;;;;;21.78;30.66;100510.47;5075065;28;20036;-76
2021/10/01 11:24:12;;;;;;;12.77;4.72;;;;;;;22.28;30.59;100506.66;5093298;28;20545;-76
2021/10/01 11:26:37;;;;;;;10.80;4.45;;;;;;;22.78;29.67;100496.31;5093300;28;20416;-75
2021/10/01 11:29:28;;;;;;;9.75;3.10;;;;;;;22.37;29.65;100444.25;5090957;28;20032;-75
2021/10/01 11:32:08;;;;;;;7.20;3.63;;;;;;;22.65;29.10;100502.75;5072764;28;20062;-76
2021/10/01 11:34:43;;;;;;;6.50;3.88;;;;;;;22.23;29.46;100496.59;5080770;28;20522;-75
2021/10/01 11:37:27;;;;;;;5.82;3.08;;;;;;;21.96;29.68;100498.84;5093104;28;20036;-76
2021/10/01 11:39:54;;;;;;;7.60;2.97;;;;;;;21.56;30.13;100494.03;5093042;28;20058;-76
2021/10/01 11:42:32;;;;;;;9.20;3.33;;;;;;;21.43;30.11;100491.47;5093055;28;20031;-76
2021/10/01 11:45:07;;;;;;;8.75;4.43;;;;;;;21.41;29.98;100474.75;5092136;28;20029;-76
2021/10/01 11:47:33;;;;;;;7.45;3.97;;;;;;;21.35;30.30;100482.91;5090419;28;20016;-75
2021/10/01 11:49:59;;;;;;;6.13;3.67;;;;;;;20.90;30.60;100445.59;5090375;28;20020;-76
2021/10/01 11:52:27;;;;;;;5.88;3.58;;;;;;;20.27;30.95;100400.16;5090697;28;20074;-73
2021/10/01 11:54:59;;;;;;;10.02;3.33;;;;;;;20.45;30.54;100424.38;5090810;28;20020;-75
2021/10/01 11:57:43;;;;;;;5.72;4.68;;;;;;;19.62;30.81;100325.41;5090949;28;20059;-76
2021/10/01 12:00:11;;;;;;;7.93;3.35;;;;;;;20.70;31.28;100485.22;5090907;28;20024;-76
2021/10/01 12:02:38;;;;;;;3.95;2.90;;;;;;;20.86;31.20;100469.38;5092512;28;20016;-75
2021/10/01 12:05:20;;;;;;;9.57;4.07;;;;;;;20.99;30.22;100464.91;5092152;28;20024;-76
2021/10/01 12:07:47;;;;;;;4.10;3.15;;;;;;;21.03;31.07;100464.25;5086857;28;20028;-75
2021/10/01 12:10:13;;;;;;;6.78;3.33;;;;;;;21.18;31.07;100506.84;5089856;28;20412;-76
2021/10/01 12:12:58;;;;;;;6.63;4.40;;;;;;;21.11;30.40;100476.56;5089259;28;20358;-77
2021/10/01 12:15:37;;;;;;;7.43;5.75;;;;;;;20.90;30.42;100477.81;5089627;28;20059;-76
2021/10/01 12:18:07;;;;;;;8.57;4.88;;;;;;;20.27;30.82;100376.84;5090139;28;20500;-76
2021/10/01 12:20:47;;;;;;;6.68;4.35;;;;;;;20.94;30.85;100469.09;5090317;28;20024;-76
2021/10/01 12:23:21;;;;;;;12.20;5.10;;;;;;;21.06;30.65;100476.41;5082369;28;20505;-75
2021/10/01 12:25:47;;;;;;;10.40;3.72;;;;;;;21.14;30.56;100468.03;5090940;28;20454;-77
2021/10/01 12:28:12;;;;;;;8.48;3.72;;;;;;;21.04;30.75;100447.09;5092177;28;20039;-76
2021/10/01 12:30:38;;;;;;;5.75;2.97;;;;;;;20.47;30.38;100373.16;5092434;28;20085;-74
2021/10/01 12:33:03;;;;;;;7.43;3.22;;;;;;;21.02;30.43;100472.53;5092150;28;20104;-76
2021/10/01 12:35:29;;;;;;;6.80;3.08;;;;;;;20.58;30.71;100421.53;5091825;28;20161;-77
2021/10/01 12:37:54;;;;;;;8.60;4.28;;;;;;;20.59;30.71;100417.00;5090636;28;20028;-75
2021/10/01 12:40:19;;;;;;;6.43;4.00;;;;;;;20.81;30.35;100441.56;5078719;28;20453;-76
2021/10/01 12:42:51;;;;;;;7.78;4.07;;;;;;;20.86;30.76;100457.81;5090437;28;20447;-76
2021/10/01 12:45:17;;;;;;;;;;;;;;;20.74;31.27;100459.56;5084885;28;20425;-76
2021/10/01 12:47:45;;;;;;;9.68;4.15;;;;;;;20.81;30.82;100479.97;5075171;28;19913;-75
2021/10/01 12:50:29;;;;;;;5.53;2.70;;;;;;;20.82;30.63;100454.78;5080636;28;20020;-76
2021/10/01 12:52:56;;;;;;;9.88;3.40;;;;;;;20.78;30.88;100450.84;5089817;28;20389;-76
2021/10/01 12:55:22;;;;;;;7.70;3.08;;;;;;;20.79;30.83;100451.69;5091401;28;20051;-76
2021/10/01 12:57:50;;;;;;;5.97;3.35;;;;;;;20.92;30.79;100448.88;5082555;28;20067;-77
2021/10/01 13:00:18;;;;;;;6.38;2.95;;;;;;;21.05;30.49;100445.22;5071020;28;20032;-76
2021/10/01 13:02:48;;;;;;;4.65;3.78;;;;;;;20.03;30.37;100256.19;5070984;28;20016;-75